createdAt,value
2018-08-30T00:02:04.588Z,26.75
2018-08-30T00:04:32.875Z,29.20
2018-08-30T00:07:01.177Z,29.30
2018-08-30T00:09:29.512Z,27.47
2018-08-30T00:11:58.594Z,29.03
2018-08-30T00:14:26.922Z,28.50
2018-08-30T00:16:55.230Z,30.20
2018-08-30T00:19:23.550Z,29.10
2018-08-30T00:21:51.822Z,29.77
2018-08-30T00:24:20.144Z,29.67
2018-08-30T00:26:48.485Z,29.80
2018-08-30T00:29:16.780Z,29.40
2018-08-30T00:31:45.067Z,29.83
2018-08-30T00:34:13.336Z,30.62
2018-08-30T00:36:41.618Z,32.47
2018-08-30T00:39:10.303Z,30.70
2018-08-30T00:41:38.741Z,32.20
2018-08-30T00:44:07.115Z,32.67
2018-08-30T00:46:35.429Z,31.03
2018-08-30T00:49:03.712Z,35.33
2018-08-30T00:51:31.964Z,32.43
2018-08-30T00:54:00.288Z,33.17
2018-08-30T00:56:28.669Z,34.57
2018-08-30T00:58:56.947Z,33.60
2018-08-30T01:01:25.255Z,34.53
2018-08-30T01:03:53.548Z,33.40
2018-08-30T01:06:21.860Z,32.70
2018-08-30T01:08:50.134Z,33.80
2018-08-30T01:11:18.390Z,34.17
2018-08-30T01:13:46.713Z,32.17
2018-08-30T01:16:14.987Z,32.87
2018-08-30T01:18:43.324Z,35.33
2018-08-30T01:21:11.870Z,34.27
2018-08-30T01:23:40.953Z,35.13
2018-08-30T01:26:09.284Z,35.92
2018-08-30T01:28:38.146Z,39.20
2018-08-30T01:31:06.444Z,38.47
2018-08-30T01:33:34.740Z,36.77
2018-08-30T01:36:03.052Z,35.10
2018-08-30T01:38:31.963Z,38.20
2018-08-30T01:41:00.230Z,36.53
2018-08-30T01:43:28.542Z,37.37
2018-08-30T01:45:56.959Z,35.33
2018-08-30T01:48:25.222Z,38.20
2018-08-30T01:50:53.500Z,38.43
2018-08-30T01:53:21.797Z,33.77
2018-08-30T01:55:50.102Z,36.77
2018-08-30T01:58:18.391Z,35.10
2018-08-30T02:00:46.670Z,38.03
2018-08-30T02:03:14.958Z,37.23
2018-08-30T02:05:43.196Z,36.77
2018-08-30T02:08:11.514Z,34.43
2018-08-30T02:10:39.842Z,37.30
2018-08-30T02:13:08.107Z,39.33
2018-08-30T02:15:36.427Z,37.70
2018-08-30T02:18:04.817Z,38.67
2018-08-30T02:20:33.118Z,39.90
2018-08-30T02:23:01.378Z,37.83
2018-08-30T02:25:29.648Z,39.50
2018-08-30T02:27:57.908Z,38.37
2018-08-30T02:30:26.626Z,35.27
2018-08-30T02:32:54.907Z,37.83
2018-08-30T02:35:23.190Z,39.20
2018-08-30T02:37:51.489Z,37.73
2018-08-30T02:40:19.770Z,37.78
2018-08-30T02:42:48.644Z,37.97
2018-08-30T02:45:16.998Z,37.17
2018-08-30T02:47:45.260Z,34.73
2018-08-30T02:50:13.521Z,36.07
2018-08-30T02:52:41.813Z,37.87
2018-08-30T02:55:10.067Z,37.33
2018-08-30T02:57:38.320Z,35.67
2018-08-30T03:00:06.680Z,34.03
2018-08-30T03:02:35.004Z,37.07
2018-08-30T03:05:03.360Z,38.60
2018-08-30T03:07:31.640Z,34.73
2018-08-30T03:09:59.937Z,35.43
2018-08-30T03:12:28.191Z,36.20
2018-08-30T03:15:14.962Z,38.40
2018-08-30T03:17:44.101Z,37.10
2018-08-30T03:20:13.877Z,38.55
2018-08-30T03:22:42.558Z,40.03
2018-08-30T03:25:11.570Z,37.07
2018-08-30T03:27:39.798Z,38.33
2018-08-30T03:30:08.728Z,40.93
2018-08-30T03:32:37.143Z,39.13
2018-08-30T03:35:05.473Z,38.67
2018-08-30T03:37:34.453Z,39.53
2018-08-30T03:40:02.751Z,37.33
2018-08-30T03:42:31.048Z,39.43
2018-08-30T03:44:59.330Z,40.00
2018-08-30T03:47:27.688Z,39.42
2018-08-30T03:49:55.968Z,39.67
2018-08-30T03:52:24.319Z,39.53
2018-08-30T03:54:52.621Z,40.83
2018-08-30T03:57:20.944Z,40.33
2018-08-30T03:59:49.227Z,40.43
2018-08-30T04:02:17.502Z,38.07
2018-08-30T04:04:45.800Z,37.60
2018-08-30T04:07:14.100Z,35.33
2018-08-30T04:09:42.376Z,36.80
2018-08-30T04:12:10.733Z,37.60
2018-08-30T04:14:38.983Z,35.10
2018-08-30T04:17:07.257Z,35.30
2018-08-30T04:19:35.569Z,34.63
2018-08-30T04:22:05.749Z,34.80
2018-08-30T04:24:34.049Z,37.47
2018-08-30T04:27:02.388Z,37.70
2018-08-30T04:29:30.772Z,35.33
2018-08-30T04:31:59.080Z,34.30
2018-08-30T04:34:27.350Z,33.50
2018-08-30T04:36:55.749Z,32.63
2018-08-30T04:39:24.042Z,33.20
2018-08-30T04:41:52.439Z,32.13
2018-08-30T04:44:20.886Z,32.93
2018-08-30T04:46:49.239Z,31.20
2018-08-30T04:49:17.578Z,33.40
2018-08-30T04:51:45.944Z,31.17
2018-08-30T04:54:14.931Z,31.52
2018-08-30T04:56:43.391Z,31.93
2018-08-30T04:59:11.725Z,31.37
2018-08-30T05:01:40.091Z,31.70
2018-08-30T05:04:12.899Z,32.43
2018-08-30T05:06:41.246Z,32.33
2018-08-30T05:09:11.002Z,32.97
2018-08-30T05:11:39.306Z,31.70
2018-08-30T05:14:08.008Z,33.77
2018-08-30T05:16:36.518Z,31.37
2018-08-30T05:19:05.048Z,31.90
2018-08-30T05:21:33.778Z,32.63
2018-08-30T05:24:02.095Z,32.73
2018-08-30T05:26:30.455Z,32.90
2018-08-30T05:28:58.776Z,35.23
2018-08-30T05:31:27.103Z,33.03
2018-08-30T05:33:55.458Z,34.00
2018-08-30T05:36:23.882Z,32.53
2018-08-30T05:38:52.244Z,32.33
2018-08-30T05:41:20.541Z,31.90
2018-08-30T05:43:48.860Z,28.53
2018-08-30T05:46:17.223Z,30.37
2018-08-30T05:48:45.598Z,30.00
2018-08-30T05:51:14.452Z,30.48
2018-08-30T05:53:42.789Z,31.97
2018-08-30T05:56:11.264Z,27.70
2018-08-30T05:58:39.588Z,26.23
2018-08-30T06:01:07.958Z,26.33
2018-08-30T06:03:36.248Z,22.87
2018-08-30T06:06:04.727Z,24.83
2018-08-30T06:08:33.136Z,21.57
2018-08-30T06:11:01.451Z,21.30
2018-08-30T06:13:29.766Z,23.27
2018-08-30T06:15:58.089Z,21.83
2018-08-30T06:18:26.368Z,20.43
2018-08-30T06:20:54.843Z,24.50
2018-08-30T06:23:23.185Z,18.10
2018-08-30T06:25:51.530Z,20.37
2018-08-30T06:28:19.848Z,18.57
2018-08-30T06:30:48.136Z,20.40
2018-08-30T06:33:16.470Z,19.83
2018-08-30T06:35:44.843Z,18.70
2018-08-30T06:38:13.372Z,13.03
2018-08-30T06:40:41.685Z,16.37
2018-08-30T06:43:09.956Z,14.57
2018-08-30T06:45:38.232Z,14.10
2018-08-30T06:48:06.516Z,16.00
2018-08-30T06:50:34.902Z,13.87
2018-08-30T06:53:03.217Z,14.37
2018-08-30T06:55:31.545Z,12.87
2018-08-30T06:57:59.883Z,16.37
2018-08-30T07:00:28.192Z,13.00
2018-08-30T07:02:57.059Z,13.40
2018-08-30T07:05:25.361Z,15.57
2018-08-30T07:07:53.695Z,11.17
2018-08-30T07:10:22.309Z,12.80
2018-08-30T07:12:50.598Z,12.83
2018-08-30T07:15:19.061Z,12.37
2018-08-30T07:17:47.379Z,9.23
2018-08-30T07:20:15.647Z,11.73
2018-08-30T07:22:43.934Z,10.47
2018-08-30T07:25:12.256Z,14.00
2018-08-30T07:27:40.734Z,13.97
2018-08-30T07:30:11.168Z,15.87
2018-08-30T07:32:39.441Z,9.53
2018-08-30T07:35:07.860Z,8.30
2018-08-30T07:37:36.064Z,8.80
2018-08-30T07:40:04.650Z,10.00
2018-08-30T07:42:32.946Z,12.23
2018-08-30T07:45:01.221Z,10.10
2018-08-30T07:47:29.526Z,11.57
2018-08-30T07:49:57.830Z,12.43
2018-08-30T07:52:26.184Z,10.97
2018-08-30T07:54:54.507Z,12.33
2018-08-30T07:57:22.878Z,9.67
2018-08-30T07:59:51.287Z,10.50
2018-08-30T08:02:23.913Z,7.77
2018-08-30T08:04:52.207Z,8.90
2018-08-30T08:07:21.274Z,10.93
2018-08-30T08:09:49.709Z,11.00
2018-08-30T08:12:18.042Z,10.63
2018-08-30T08:14:46.318Z,10.63
2018-08-30T08:17:14.700Z,10.43
2018-08-30T08:19:43.067Z,10.63
2018-08-30T08:22:11.537Z,10.80
2018-08-30T08:24:39.825Z,9.13
2018-08-30T08:27:08.185Z,10.60
2018-08-30T08:29:36.483Z,7.30
2018-08-30T08:32:04.788Z,8.53
2018-08-30T08:34:33.128Z,8.67
2018-08-30T08:37:01.430Z,10.60
2018-08-30T08:39:29.745Z,9.33
2018-08-30T08:41:58.072Z,11.43
2018-08-30T08:44:26.467Z,8.40
2018-08-30T08:46:54.803Z,7.60
2018-08-30T08:49:23.202Z,8.80
2018-08-30T08:51:51.508Z,7.10
2018-08-30T08:54:19.826Z,10.50
2018-08-30T08:56:48.219Z,10.97
2018-08-30T08:59:16.533Z,7.40
2018-08-30T09:01:44.883Z,12.23
2018-08-30T09:04:13.189Z,8.87
2018-08-30T09:06:41.554Z,9.03
2018-08-30T09:09:11.242Z,5.80
2018-08-30T09:11:39.710Z,7.10
2018-08-30T09:14:08.035Z,6.80
2018-08-30T09:16:36.327Z,8.33
2018-08-30T09:19:05.381Z,6.10
2018-08-30T09:21:33.863Z,5.67
2018-08-30T09:24:02.204Z,7.23
2018-08-30T09:26:30.517Z,8.33
2018-08-30T09:28:58.830Z,5.63
2018-08-30T09:31:28.016Z,7.47
2018-08-30T09:33:57.406Z,6.77
2018-08-30T09:36:25.687Z,7.37
2018-08-30T09:38:54.007Z,8.57
2018-08-30T09:41:22.300Z,8.10
2018-08-30T09:43:50.652Z,12.50
2018-08-30T09:46:18.949Z,6.77
2018-08-30T09:48:47.244Z,7.37
2018-08-30T09:51:15.591Z,5.28
2018-08-30T09:53:43.875Z,6.00
2018-08-30T09:56:12.407Z,10.60
2018-08-30T09:58:40.703Z,6.23
2018-08-30T10:01:14.213Z,5.93
2018-08-30T10:03:42.524Z,3.60
2018-08-30T10:06:10.854Z,9.20
2018-08-30T10:08:39.183Z,6.60
2018-08-30T10:11:07.594Z,5.10
2018-08-30T10:13:35.903Z,7.83
2018-08-30T10:16:04.688Z,5.40
2018-08-30T10:18:32.989Z,5.47
2018-08-30T10:21:01.268Z,6.30
2018-08-30T10:23:29.653Z,6.27
2018-08-30T10:25:57.962Z,4.87
2018-08-30T10:28:26.272Z,4.33
2018-08-30T10:30:54.576Z,3.27
2018-08-30T10:33:22.924Z,5.63
2018-08-30T10:35:51.313Z,4.70
2018-08-30T10:38:19.661Z,5.73
2018-08-30T10:40:48.044Z,5.67
2018-08-30T10:43:16.354Z,5.17
2018-08-30T10:45:44.622Z,6.53
2018-08-30T10:48:12.953Z,4.93
2018-08-30T10:50:41.294Z,4.77
2018-08-30T10:53:09.660Z,3.67
2018-08-30T10:55:37.987Z,5.50
2018-08-30T10:58:07.057Z,7.47
2018-08-30T11:00:36.407Z,3.73
2018-08-30T11:03:04.741Z,6.67
2018-08-30T11:05:33.654Z,6.67
2018-08-30T11:08:02.249Z,5.00
2018-08-30T11:10:30.585Z,5.13
2018-08-30T11:12:58.982Z,7.57
2018-08-30T11:15:27.247Z,7.90
2018-08-30T11:17:55.590Z,6.77
2018-08-30T11:20:23.895Z,4.97
2018-08-30T11:22:52.251Z,5.37
2018-08-30T11:25:20.559Z,5.03
2018-08-30T11:27:49.968Z,5.43
2018-08-30T11:30:18.249Z,4.47
2018-08-30T11:32:46.576Z,4.73
2018-08-30T11:35:14.925Z,3.77
2018-08-30T11:37:43.304Z,4.67
2018-08-30T11:40:11.606Z,5.23
2018-08-30T11:42:39.953Z,4.23
2018-08-30T11:45:09.023Z,6.40
2018-08-30T11:47:37.375Z,6.47
2018-08-30T11:50:05.698Z,5.90
2018-08-30T11:52:34.028Z,5.77
2018-08-30T11:55:02.592Z,7.67
2018-08-30T11:57:30.981Z,4.27
2018-08-30T11:59:59.291Z,6.20
2018-08-30T12:02:27.637Z,4.93
2018-08-30T12:04:56.040Z,7.13
2018-08-30T12:07:24.366Z,5.67
2018-08-30T12:09:52.753Z,9.40
2018-08-30T12:12:21.342Z,7.60
2018-08-30T12:14:49.663Z,4.87
2018-08-30T12:17:17.952Z,6.77
2018-08-30T12:19:46.337Z,6.10
2018-08-30T12:22:14.886Z,4.13
2018-08-30T12:24:43.191Z,6.10
2018-08-30T12:27:11.545Z,5.97
2018-08-30T12:29:39.872Z,5.43
2018-08-30T12:32:08.324Z,4.43
2018-08-30T12:34:36.647Z,4.20
2018-08-30T12:37:05.077Z,5.07
2018-08-30T12:39:33.466Z,6.40
2018-08-30T12:42:01.820Z,2.70
2018-08-30T12:44:30.163Z,4.93
2018-08-30T12:46:58.631Z,2.50
2018-08-30T12:49:27.014Z,8.23
2018-08-30T12:51:55.749Z,5.07
2018-08-30T12:54:24.020Z,3.07
2018-08-30T12:56:52.340Z,3.10
2018-08-30T12:59:28.624Z,5.07
2018-08-30T13:01:57.001Z,3.57
2018-08-30T13:04:25.496Z,3.83
2018-08-30T13:06:56.331Z,3.10
2018-08-30T13:09:26.567Z,5.00
2018-08-30T13:11:57.105Z,3.90
2018-08-30T13:14:25.741Z,2.83
2018-08-30T13:16:54.089Z,2.47
2018-08-30T13:19:22.600Z,2.73
2018-08-30T13:21:51.157Z,5.43
2018-08-30T13:24:19.351Z,3.20
2018-08-30T13:26:47.752Z,4.77
2018-08-30T13:29:16.218Z,4.80
2018-08-30T13:31:44.962Z,3.27
2018-08-30T13:34:14.200Z,5.17
2018-08-30T13:36:42.665Z,4.10
2018-08-30T13:39:12.018Z,6.83
2018-08-30T13:41:40.392Z,5.17
2018-08-30T13:44:10.118Z,5.40
2018-08-30T13:46:39.216Z,4.70
2018-08-30T13:49:07.925Z,4.43
2018-08-30T13:51:36.334Z,5.40
2018-08-30T13:54:05.580Z,4.20
2018-08-30T13:56:33.772Z,2.80
2018-08-30T13:59:02.573Z,5.03
2018-08-30T14:01:31.216Z,5.37
2018-08-30T14:03:58.957Z,8.43
2018-08-30T14:06:27.336Z,4.47
2018-08-30T14:08:56.091Z,3.77
2018-08-30T14:11:24.536Z,8.57
2018-08-30T14:13:52.739Z,4.67
2018-08-30T14:16:20.864Z,5.73
2018-08-30T14:18:49.713Z,4.23
2018-08-30T14:21:18.038Z,5.63
2018-08-30T14:23:46.380Z,4.57
2018-08-30T14:26:14.661Z,3.70
2018-08-30T14:28:42.957Z,4.40
2018-08-30T14:31:11.292Z,4.67
2018-08-30T14:33:39.607Z,4.40
2018-08-30T14:36:07.947Z,3.30
2018-08-30T14:38:36.387Z,3.87
2018-08-30T14:41:05.291Z,4.60
2018-08-30T14:43:33.395Z,4.97
2018-08-30T14:46:01.716Z,5.87
2018-08-30T14:48:30.007Z,4.10
2018-08-30T14:50:58.301Z,4.47
2018-08-30T14:53:26.730Z,6.67
2018-08-30T14:55:54.964Z,4.03
2018-08-30T14:58:23.358Z,3.60
2018-08-30T15:00:51.663Z,4.73
2018-08-30T15:03:20.059Z,3.47
2018-08-30T15:05:48.506Z,4.83
2018-08-30T15:08:16.874Z,4.63
2018-08-30T15:10:45.148Z,4.20
2018-08-30T15:13:13.733Z,5.23
2018-08-30T15:15:42.095Z,5.30
2018-08-30T15:18:10.493Z,4.20
2018-08-30T15:20:38.789Z,4.40
2018-08-30T15:23:07.607Z,4.27
2018-08-30T15:25:36.569Z,5.43
2018-08-30T15:28:05.289Z,5.17
2018-08-30T15:30:33.677Z,5.77
2018-08-30T15:33:02.065Z,7.00
2018-08-30T15:35:31.100Z,6.33
2018-08-30T15:37:59.384Z,6.87
2018-08-30T15:40:27.999Z,5.63
2018-08-30T15:42:56.733Z,7.93
2018-08-30T15:45:25.056Z,5.93
2018-08-30T15:47:53.443Z,5.23
2018-08-30T15:50:21.929Z,5.17
2018-08-30T15:52:50.497Z,4.50
2018-08-30T15:55:18.870Z,4.00
2018-08-30T15:57:47.565Z,3.97
2018-08-30T16:00:16.741Z,5.13
2018-08-30T16:02:45.662Z,6.03
2018-08-30T16:05:14.025Z,3.80
2018-08-30T16:07:42.779Z,4.53
2018-08-30T16:10:11.416Z,7.90
2018-08-30T16:12:39.722Z,3.47
2018-08-30T16:15:08.144Z,3.77
2018-08-30T16:17:36.568Z,3.77
2018-08-30T16:20:05.015Z,5.60
2018-08-30T16:22:46.528Z,3.47
2018-08-30T16:25:14.754Z,3.83
2018-08-30T16:27:43.062Z,8.53
2018-08-30T16:30:11.380Z,4.07
2018-08-30T16:32:39.690Z,5.90
2018-08-30T16:35:08.421Z,5.23
2018-08-30T16:37:36.697Z,8.27
2018-08-30T16:40:05.049Z,6.27
2018-08-30T16:42:33.386Z,5.37
2018-08-30T16:45:01.663Z,5.43
2018-08-30T16:47:30.024Z,4.67
2018-08-30T16:49:58.370Z,6.23
2018-08-30T16:52:26.807Z,7.40
2018-08-30T16:54:59.471Z,4.60
2018-08-30T16:57:27.816Z,8.63
2018-08-30T16:59:56.160Z,6.30
2018-08-30T17:02:24.502Z,5.80
2018-08-30T17:04:52.746Z,6.97
2018-08-30T17:07:21.101Z,5.42
2018-08-30T17:09:49.428Z,5.53
2018-08-30T17:12:17.812Z,4.30
2018-08-30T17:14:46.154Z,8.00
2018-08-30T17:17:14.624Z,5.65
2018-08-30T17:19:42.851Z,7.13
2018-08-30T17:22:11.144Z,6.37
2018-08-30T17:24:39.467Z,6.20
2018-08-30T17:27:07.798Z,6.00
2018-08-30T17:29:36.102Z,5.27
2018-08-30T17:32:04.791Z,4.27
2018-08-30T17:34:33.184Z,7.13
2018-08-30T17:37:01.733Z,6.73
2018-08-30T17:39:29.833Z,5.73
2018-08-30T17:41:58.272Z,6.87
2018-08-30T17:44:26.751Z,5.20
2018-08-30T17:46:55.601Z,7.47
2018-08-30T17:49:24.004Z,7.30
2018-08-30T17:51:52.722Z,3.47
2018-08-30T17:54:21.000Z,5.60
2018-08-30T17:56:49.279Z,5.53
2018-08-30T17:59:17.626Z,6.03
2018-08-30T18:01:45.930Z,5.57
2018-08-30T18:04:14.218Z,7.53
2018-08-30T18:06:42.722Z,5.77
2018-08-30T18:09:11.028Z,5.00
2018-08-30T18:11:39.354Z,9.07
2018-08-30T18:14:07.761Z,5.97
2018-08-30T18:16:36.801Z,6.60
2018-08-30T18:19:05.233Z,5.93
2018-08-30T18:21:33.561Z,4.40
2018-08-30T18:24:01.857Z,6.40
2018-08-30T18:26:30.219Z,6.83
2018-08-30T18:28:58.560Z,7.47
2018-08-30T18:31:26.957Z,5.13
2018-08-30T18:33:55.199Z,5.80
2018-08-30T18:36:23.513Z,4.43
2018-08-30T18:38:51.897Z,6.07
2018-08-30T18:41:20.490Z,9.88
2018-08-30T18:43:48.766Z,6.27
2018-08-30T18:46:17.401Z,6.13
2018-08-30T18:48:46.182Z,6.37
2018-08-30T18:51:14.468Z,6.07
2018-08-30T18:53:42.940Z,6.87
2018-08-30T18:56:11.247Z,6.20
2018-08-30T18:58:40.292Z,6.67
2018-08-30T19:01:08.612Z,5.80
2018-08-30T19:03:36.920Z,5.93
2018-08-30T19:06:05.411Z,9.07
2018-08-30T19:08:34.108Z,7.87
2018-08-30T19:11:02.515Z,7.47
2018-08-30T19:13:31.054Z,9.05
2018-08-30T19:16:04.676Z,6.43
2018-08-30T19:18:38.295Z,7.43
2018-08-30T19:21:07.005Z,5.90
2018-08-30T19:23:36.114Z,5.57
2018-08-30T19:26:05.123Z,5.55
2018-08-30T19:28:33.493Z,6.53
2018-08-30T19:31:01.796Z,7.40
2018-08-30T19:33:30.127Z,5.70
2018-08-30T19:36:03.604Z,4.50
2018-08-30T19:38:31.915Z,7.37
2018-08-30T19:41:05.822Z,7.37
2018-08-30T19:43:34.224Z,4.80
2018-08-30T19:46:02.490Z,6.67
2018-08-30T19:48:30.909Z,7.67
2018-08-30T19:50:59.213Z,8.63
2018-08-30T19:53:28.302Z,5.58
2018-08-30T19:55:56.706Z,6.13
2018-08-30T19:58:25.187Z,4.03
2018-08-30T20:00:53.521Z,8.70
2018-08-30T20:03:21.914Z,7.43
2018-08-30T20:05:50.220Z,5.77
2018-08-30T20:08:18.524Z,5.80
2018-08-30T20:10:46.773Z,8.50
2018-08-30T20:13:15.136Z,7.27
2018-08-30T20:15:43.517Z,7.07
2018-08-30T20:18:16.261Z,6.33
2018-08-30T20:20:44.516Z,9.00
2018-08-30T20:23:12.935Z,7.20
2018-08-30T20:25:41.246Z,8.20
2018-08-30T20:28:09.534Z,6.63
2018-08-30T20:30:37.809Z,5.80
2018-08-30T20:33:06.313Z,5.17
2018-08-30T20:35:34.627Z,7.63
2018-08-30T20:38:02.897Z,8.30
2018-08-30T20:40:31.156Z,8.07
2018-08-30T20:43:00.506Z,7.80
2018-08-30T20:45:28.784Z,6.87
2018-08-30T20:47:57.083Z,8.33
2018-08-30T20:50:26.065Z,6.43
2018-08-30T20:52:55.017Z,9.33
2018-08-30T20:55:23.315Z,6.12
2018-08-30T20:57:55.875Z,9.27
2018-08-30T21:00:24.244Z,8.80
2018-08-30T21:02:52.512Z,5.03
2018-08-30T21:05:20.798Z,5.53
2018-08-30T21:07:49.076Z,7.83
2018-08-30T21:10:17.380Z,7.80
2018-08-30T21:12:45.622Z,5.80
2018-08-30T21:15:13.914Z,7.83
2018-08-30T21:17:42.168Z,8.20
2018-08-30T21:20:10.435Z,6.83
2018-08-30T21:22:38.728Z,7.40
2018-08-30T21:25:07.059Z,8.10
2018-08-30T21:27:35.343Z,5.77
2018-08-30T21:30:03.678Z,5.90
2018-08-30T21:32:31.984Z,7.13
2018-08-30T21:35:00.292Z,7.07
2018-08-30T21:37:29.161Z,10.13
2018-08-30T21:39:57.471Z,7.13
2018-08-30T21:42:26.831Z,5.87
2018-08-30T21:44:55.135Z,6.53
2018-08-30T21:47:24.336Z,6.80
2018-08-30T21:49:52.602Z,6.20
2018-08-30T21:52:20.914Z,6.80
2018-08-30T21:54:49.604Z,9.80
2018-08-30T21:57:17.897Z,6.57
2018-08-30T21:59:46.160Z,6.57
2018-08-30T22:02:14.500Z,4.27
2018-08-30T22:04:42.761Z,5.73
2018-08-30T22:07:11.085Z,10.60
2018-08-30T22:09:39.380Z,7.60
2018-08-30T22:12:07.633Z,8.20
2018-08-30T22:14:36.541Z,8.00
2018-08-30T22:17:04.981Z,7.23
2018-08-30T22:19:33.231Z,7.90
2018-08-30T22:22:01.558Z,4.20
2018-08-30T22:24:29.826Z,6.90
2018-08-30T22:26:58.079Z,8.03
2018-08-30T22:29:26.433Z,7.70
2018-08-30T22:31:54.757Z,6.53
2018-08-30T22:34:23.033Z,6.27
2018-08-30T22:36:51.304Z,7.67
2018-08-30T22:39:19.612Z,4.23
2018-08-30T22:41:47.940Z,5.33
2018-08-30T22:44:16.218Z,4.90
2018-08-30T22:46:44.516Z,5.43
2018-08-30T22:49:12.831Z,7.67
2018-08-30T22:51:41.139Z,6.00
2018-08-30T22:54:09.474Z,5.20
2018-08-30T22:56:37.741Z,4.67
2018-08-30T22:59:06.081Z,7.67
2018-08-30T23:01:34.352Z,5.37
2018-08-30T23:04:02.734Z,5.67
2018-08-30T23:06:31.052Z,6.57
2018-08-30T23:08:59.299Z,8.77
2018-08-30T23:11:27.664Z,4.47
2018-08-30T23:13:55.964Z,10.33
2018-08-30T23:16:24.251Z,8.00
2018-08-30T23:18:52.523Z,7.33
2018-08-30T23:21:20.824Z,6.65
2018-08-30T23:23:49.077Z,7.63
2018-08-30T23:26:17.317Z,4.83
2018-08-30T23:28:45.645Z,4.60
2018-08-30T23:31:13.863Z,6.60
2018-08-30T23:33:42.198Z,7.63
2018-08-30T23:36:10.488Z,7.87
2018-08-30T23:38:38.800Z,7.87
2018-08-30T23:41:07.082Z,7.47
2018-08-30T23:43:35.363Z,4.87
2018-08-30T23:46:04.511Z,6.65
2018-08-30T23:48:32.789Z,5.70
2018-08-30T23:51:01.081Z,6.40
2018-08-30T23:53:29.346Z,6.87
2018-08-30T23:55:57.626Z,8.93
2018-08-30T23:58:37.027Z,6.60
